sensor_id;sensor_type;location;lat;lon;timestamp;P1;durP1;ratioP1;P2;durP2;ratioP2
13102;SDS011;52970;46.752;17.108;2022-10-16T00:00:28;19.33;;;15.10;;
13102;SDS011;52970;46.752;17.108;2022-10-16T00:02:53;17.77;;;14.57;;
13102;SDS011;52970;46.752;17.108;2022-10-16T00:05:18;18.30;;;14.27;;
13102;SDS011;52970;46.752;17.108;2022-10-16T00:07:43;18.98;;;14.65;;
13102;SDS011;52970;46.752;17.108;2022-10-16T00:10:08;15.82;;;14.00;;
13102;SDS011;52970;46.752;17.108;2022-10-16T00:12:34;15.98;;;14.30;;
13102;SDS011;52970;46.752;17.108;2022-10-16T00:14:59;15.88;;;13.88;;
13102;SDS011;52970;46.752;17.108;2022-10-16T00:17:24;17.55;;;14.15;;
13102;SDS011;52970;46.752;17.108;2022-10-16T00:19:49;15.32;;;13.70;;
13102;SDS011;52970;46.752;17.108;2022-10-16T00:22:15;16.38;;;13.93;;
13102;SDS011;52970;46.752;17.108;2022-10-16T00:24:40;17.27;;;14.35;;
13102;SDS011;52970;46.752;17.108;2022-10-16T00:27:05;15.73;;;13.90;;
13102;SDS011;52970;46.752;17.108;2022-10-16T00:29:30;16.33;;;14.63;;
13102;SDS011;52970;46.752;17.108;2022-10-16T00:31:55;19.00;;;14.90;;
13102;SDS011;52970;46.752;17.108;2022-10-16T00:34:21;18.77;;;15.73;;
13102;SDS011;52970;46.752;17.108;2022-10-16T00:36:46;19.13;;;14.52;;
13102;SDS011;52970;46.752;17.108;2022-10-16T00:39:11;19.55;;;16.40;;
13102;SDS011;52970;46.752;17.108;2022-10-16T00:41:37;17.38;;;13.70;;
13102;SDS011;52970;46.752;17.108;2022-10-16T00:44:03;27.40;;;15.20;;
13102;SDS011;52970;46.752;17.108;2022-10-16T00:46:37;21.67;;;15.23;;
13102;SDS011;52970;46.752;17.108;2022-10-16T00:49:06;26.90;;;17.25;;
13102;SDS011;52970;46.752;17.108;2022-10-16T00:51:35;33.78;;;18.23;;
13102;SDS011;52970;46.752;17.108;2022-10-16T00:54:02;21.83;;;15.73;;
13102;SDS011;52970;46.752;17.108;2022-10-16T00:56:28;19.13;;;14.23;;
13102;SDS011;52970;46.752;17.108;2022-10-16T00:58:53;21.13;;;15.10;;
13102;SDS011;52970;46.752;17.108;2022-10-16T01:01:18;29.23;;;16.77;;
13102;SDS011;52970;46.752;17.108;2022-10-16T01:03:44;23.55;;;16.17;;
13102;SDS011;52970;46.752;17.108;2022-10-16T01:11:28;19.42;;;14.77;;
13102;SDS011;52970;46.752;17.108;2022-10-16T01:13:57;17.90;;;15.02;;
13102;SDS011;52970;46.752;17.108;2022-10-16T01:16:28;18.88;;;13.82;;
13102;SDS011;52970;46.752;17.108;2022-10-16T01:19:04;26.63;;;16.35;;
13102;SDS011;52970;46.752;17.108;2022-10-16T01:21:33;21.08;;;14.57;;
13102;SDS011;52970;46.752;17.108;2022-10-16T01:27:30;20.17;;;14.60;;
13102;SDS011;52970;46.752;17.108;2022-10-16T01:29:32;18.88;;;13.60;;
13102;SDS011;52970;46.752;17.108;2022-10-16T01:31:59;21.65;;;15.77;;
13102;SDS011;52970;46.752;17.108;2022-10-16T01:34:29;22.77;;;14.10;;
13102;SDS011;52970;46.752;17.108;2022-10-16T01:37:05;22.38;;;15.65;;
13102;SDS011;52970;46.752;17.108;2022-10-16T01:39:33;19.55;;;14.85;;
13102;SDS011;52970;46.752;17.108;2022-10-16T01:42:02;18.00;;;14.13;;
13102;SDS011;52970;46.752;17.108;2022-10-16T01:44:29;18.45;;;14.32;;
13102;SDS011;52970;46.752;17.108;2022-10-16T01:46:55;18.02;;;13.15;;
13102;SDS011;52970;46.752;17.108;2022-10-16T01:49:22;21.73;;;14.18;;
13102;SDS011;52970;46.752;17.108;2022-10-16T01:51:49;24.25;;;14.05;;
13102;SDS011;52970;46.752;17.108;2022-10-16T01:54:15;22.15;;;14.63;;
13102;SDS011;52970;46.752;17.108;2022-10-16T01:56:41;15.18;;;13.15;;
13102;SDS011;52970;46.752;17.108;2022-10-16T01:59:11;16.15;;;12.68;;
13102;SDS011;52970;46.752;17.108;2022-10-16T02:01:38;15.98;;;12.45;;
13102;SDS011;52970;46.752;17.108;2022-10-16T02:04:12;17.25;;;13.75;;
13102;SDS011;52970;46.752;17.108;2022-10-16T02:06:38;15.70;;;13.88;;
13102;SDS011;52970;46.752;17.108;2022-10-16T02:09:03;17.75;;;14.13;;
13102;SDS011;52970;46.752;17.108;2022-10-16T02:11:28;18.42;;;13.75;;
13102;SDS011;52970;46.752;17.108;2022-10-16T02:13:55;15.10;;;13.55;;
13102;SDS011;52970;46.752;17.108;2022-10-16T02:16:32;16.92;;;13.63;;
13102;SDS011;52970;46.752;17.108;2022-10-16T02:18:57;21.98;;;14.10;;
13102;SDS011;52970;46.752;17.108;2022-10-16T02:21:26;17.52;;;14.57;;
13102;SDS011;52970;46.752;17.108;2022-10-16T02:24:04;16.63;;;13.52;;
13102;SDS011;52970;46.752;17.108;2022-10-16T02:26:35;20.65;;;14.38;;
13102;SDS011;52970;46.752;17.108;2022-10-16T02:29:02;16.40;;;13.98;;
13102;SDS011;52970;46.752;17.108;2022-10-16T02:31:31;16.23;;;13.43;;
13102;SDS011;52970;46.752;17.108;2022-10-16T02:33:59;24.20;;;15.18;;
13102;SDS011;52970;46.752;17.108;2022-10-16T02:36:25;17.55;;;13.88;;
13102;SDS011;52970;46.752;17.108;2022-10-16T02:38:50;24.00;;;15.02;;
13102;SDS011;52970;46.752;17.108;2022-10-16T02:41:15;16.20;;;13.20;;
13102;SDS011;52970;46.752;17.108;2022-10-16T02:43:41;16.55;;;13.35;;
13102;SDS011;52970;46.752;17.108;2022-10-16T02:46:06;17.38;;;14.05;;
13102;SDS011;52970;46.752;17.108;2022-10-16T02:48:31;19.58;;;14.25;;
13102;SDS011;52970;46.752;17.108;2022-10-16T02:50:56;18.27;;;14.82;;
13102;SDS011;52970;46.752;17.108;2022-10-16T02:53:22;17.08;;;14.32;;
13102;SDS011;52970;46.752;17.108;2022-10-16T02:55:47;20.25;;;15.23;;
13102;SDS011;52970;46.752;17.108;2022-10-16T02:58:12;23.20;;;17.05;;
13102;SDS011;52970;46.752;17.108;2022-10-16T03:00:37;25.33;;;16.58;;
13102;SDS011;52970;46.752;17.108;2022-10-16T03:03:03;20.50;;;16.20;;
13102;SDS011;52970;46.752;17.108;2022-10-16T03:05:28;19.98;;;16.00;;
13102;SDS011;52970;46.752;17.108;2022-10-16T03:07:53;18.10;;;15.35;;
13102;SDS011;52970;46.752;17.108;2022-10-16T03:10:18;22.90;;;17.50;;
13102;SDS011;52970;46.752;17.108;2022-10-16T03:12:44;19.83;;;16.25;;
13102;SDS011;52970;46.752;17.108;2022-10-16T03:15:09;20.00;;;16.55;;
13102;SDS011;52970;46.752;17.108;2022-10-16T03:17:34;17.50;;;14.82;;
13102;SDS011;52970;46.752;17.108;2022-10-16T03:19:59;20.27;;;15.48;;
13102;SDS011;52970;46.752;17.108;2022-10-16T03:22:25;19.15;;;15.48;;
13102;SDS011;52970;46.752;17.108;2022-10-16T03:24:50;18.33;;;14.95;;
13102;SDS011;52970;46.752;17.108;2022-10-16T03:27:16;18.45;;;14.32;;
13102;SDS011;52970;46.752;17.108;2022-10-16T03:29:41;17.33;;;14.80;;
13102;SDS011;52970;46.752;17.108;2022-10-16T03:32:06;17.08;;;14.68;;
13102;SDS011;52970;46.752;17.108;2022-10-16T03:34:31;15.48;;;13.80;;
13102;SDS011;52970;46.752;17.108;2022-10-16T03:36:57;16.38;;;14.57;;
13102;SDS011;52970;46.752;17.108;2022-10-16T03:39:22;17.60;;;15.40;;
13102;SDS011;52970;46.752;17.108;2022-10-16T03:41:47;15.32;;;13.70;;
13102;SDS011;52970;46.752;17.108;2022-10-16T03:44:13;15.38;;;13.38;;
13102;SDS011;52970;46.752;17.108;2022-10-16T03:46:38;17.73;;;15.18;;
13102;SDS011;52970;46.752;17.108;2022-10-16T03:49:03;18.25;;;15.70;;
13102;SDS011;52970;46.752;17.108;2022-10-16T03:51:28;16.30;;;13.93;;
13102;SDS011;52970;46.752;17.108;2022-10-16T03:53:54;16.98;;;14.35;;
13102;SDS011;52970;46.752;17.108;2022-10-16T03:56:19;17.60;;;15.35;;
13102;SDS011;52970;46.752;17.108;2022-10-16T03:58:44;19.15;;;15.68;;
13102;SDS011;52970;46.752;17.108;2022-10-16T04:01:09;17.88;;;15.52;;
13102;SDS011;52970;46.752;17.108;2022-10-16T04:03:34;19.02;;;15.82;;
13102;SDS011;52970;46.752;17.108;2022-10-16T04:06:00;18.75;;;14.82;;
13102;SDS011;52970;46.752;17.108;2022-10-16T04:08:25;18.08;;;15.25;;
13102;SDS011;52970;46.752;17.108;2022-10-16T04:10:50;19.40;;;15.70;;
13102;SDS011;52970;46.752;17.108;2022-10-16T04:13:16;17.40;;;15.52;;
13102;SDS011;52970;46.752;17.108;2022-10-16T04:15:41;21.77;;;16.23;;
13102;SDS011;52970;46.752;17.108;2022-10-16T04:18:07;25.52;;;18.33;;
13102;SDS011;52970;46.752;17.108;2022-10-16T04:20:32;21.63;;;16.90;;
13102;SDS011;52970;46.752;17.108;2022-10-16T04:22:57;24.25;;;17.92;;
13102;SDS011;52970;46.752;17.108;2022-10-16T04:25:23;25.73;;;18.35;;
13102;SDS011;52970;46.752;17.108;2022-10-16T04:27:48;22.55;;;17.75;;
13102;SDS011;52970;46.752;17.108;2022-10-16T04:30:13;24.10;;;18.45;;
13102;SDS011;52970;46.752;17.108;2022-10-16T04:32:39;22.73;;;17.35;;
13102;SDS011;52970;46.752;17.108;2022-10-16T04:35:04;20.35;;;17.38;;
13102;SDS011;52970;46.752;17.108;2022-10-16T04:37:30;22.85;;;17.52;;
13102;SDS011;52970;46.752;17.108;2022-10-16T04:39:55;22.38;;;17.17;;
13102;SDS011;52970;46.752;17.108;2022-10-16T04:42:20;21.50;;;16.33;;
13102;SDS011;52970;46.752;17.108;2022-10-16T04:44:46;22.73;;;17.23;;
13102;SDS011;52970;46.752;17.108;2022-10-16T04:47:11;22.05;;;17.08;;
13102;SDS011;52970;46.752;17.108;2022-10-16T04:49:36;20.38;;;17.75;;
13102;SDS011;52970;46.752;17.108;2022-10-16T04:52:02;21.90;;;16.17;;
13102;SDS011;52970;46.752;17.108;2022-10-16T04:54:27;23.35;;;15.85;;
13102;SDS011;52970;46.752;17.108;2022-10-16T04:56:52;18.23;;;15.18;;
13102;SDS011;52970;46.752;17.108;2022-10-16T04:59:18;16.95;;;14.98;;
13102;SDS011;52970;46.752;17.108;2022-10-16T05:01:43;19.40;;;15.63;;
13102;SDS011;52970;46.752;17.108;2022-10-16T05:04:09;19.65;;;15.55;;
13102;SDS011;52970;46.752;17.108;2022-10-16T05:06:34;24.90;;;18.73;;
13102;SDS011;52970;46.752;17.108;2022-10-16T05:08:59;19.17;;;15.98;;
13102;SDS011;52970;46.752;17.108;2022-10-16T05:11:25;22.75;;;17.90;;
13102;SDS011;52970;46.752;17.108;2022-10-16T05:13:50;21.02;;;16.73;;
13102;SDS011;52970;46.752;17.108;2022-10-16T05:16:15;21.55;;;15.75;;
13102;SDS011;52970;46.752;17.108;2022-10-16T05:18:41;20.77;;;15.60;;
13102;SDS011;52970;46.752;17.108;2022-10-16T05:21:06;16.35;;;14.35;;
13102;SDS011;52970;46.752;17.108;2022-10-16T05:23:31;16.20;;;13.95;;
13102;SDS011;52970;46.752;17.108;2022-10-16T05:25:57;22.85;;;15.75;;
13102;SDS011;52970;46.752;17.108;2022-10-16T05:28:23;19.90;;;15.65;;
13102;SDS011;52970;46.752;17.108;2022-10-16T05:30:48;24.00;;;15.57;;
13102;SDS011;52970;46.752;17.108;2022-10-16T05:33:14;18.38;;;15.18;;
13102;SDS011;52970;46.752;17.108;2022-10-16T05:35:39;17.80;;;15.10;;
13102;SDS011;52970;46.752;17.108;2022-10-16T05:38:04;17.40;;;14.88;;
13102;SDS011;52970;46.752;17.108;2022-10-16T05:40:29;20.00;;;16.50;;
13102;SDS011;52970;46.752;17.108;2022-10-16T05:42:55;22.30;;;14.27;;
13102;SDS011;52970;46.752;17.108;2022-10-16T05:45:20;21.23;;;15.55;;
13102;SDS011;52970;46.752;17.108;2022-10-16T05:47:45;18.60;;;15.57;;
13102;SDS011;52970;46.752;17.108;2022-10-16T05:50:11;20.45;;;15.85;;
13102;SDS011;52970;46.752;17.108;2022-10-16T05:52:36;16.40;;;13.02;;
13102;SDS011;52970;46.752;17.108;2022-10-16T05:55:01;21.38;;;15.15;;
13102;SDS011;52970;46.752;17.108;2022-10-16T05:57:27;17.80;;;13.77;;
13102;SDS011;52970;46.752;17.108;2022-10-16T05:59:52;16.95;;;13.55;;
13102;SDS011;52970;46.752;17.108;2022-10-16T06:02:17;17.48;;;13.95;;
13102;SDS011;52970;46.752;17.108;2022-10-16T06:04:42;16.10;;;13.48;;
13102;SDS011;52970;46.752;17.108;2022-10-16T06:07:08;20.10;;;14.38;;
13102;SDS011;52970;46.752;17.108;2022-10-16T06:09:33;15.25;;;13.13;;
13102;SDS011;52970;46.752;17.108;2022-10-16T06:11:58;21.17;;;13.90;;
13102;SDS011;52970;46.752;17.108;2022-10-16T06:14:23;15.65;;;13.32;;
13102;SDS011;52970;46.752;17.108;2022-10-16T06:16:49;20.02;;;15.68;;
13102;SDS011;52970;46.752;17.108;2022-10-16T06:19:14;26.15;;;16.00;;
13102;SDS011;52970;46.752;17.108;2022-10-16T06:21:41;16.23;;;13.93;;
13102;SDS011;52970;46.752;17.108;2022-10-16T06:24:06;19.38;;;15.52;;
13102;SDS011;52970;46.752;17.108;2022-10-16T06:26:32;20.05;;;15.02;;
13102;SDS011;52970;46.752;17.108;2022-10-16T06:28:58;20.38;;;15.48;;
13102;SDS011;52970;46.752;17.108;2022-10-16T06:31:23;47.33;;;16.58;;
13102;SDS011;52970;46.752;17.108;2022-10-16T06:33:52;25.80;;;16.48;;
13102;SDS011;52970;46.752;17.108;2022-10-16T06:36:18;20.80;;;16.85;;
13102;SDS011;52970;46.752;17.108;2022-10-16T06:38:43;16.88;;;14.02;;
13102;SDS011;52970;46.752;17.108;2022-10-16T06:41:09;22.75;;;17.02;;
13102;SDS011;52970;46.752;17.108;2022-10-16T06:43:36;20.33;;;16.42;;
13102;SDS011;52970;46.752;17.108;2022-10-16T06:46:02;25.48;;;17.17;;
13102;SDS011;52970;46.752;17.108;2022-10-16T06:48:28;24.35;;;17.70;;
13102;SDS011;52970;46.752;17.108;2022-10-16T06:50:57;24.08;;;18.35;;
13102;SDS011;52970;46.752;17.108;2022-10-16T06:53:23;19.83;;;16.00;;
13102;SDS011;52970;46.752;17.108;2022-10-16T06:55:48;25.42;;;18.80;;
13102;SDS011;52970;46.752;17.108;2022-10-16T06:58:13;23.13;;;17.38;;
13102;SDS011;52970;46.752;17.108;2022-10-16T07:00:38;21.23;;;17.15;;
13102;SDS011;52970;46.752;17.108;2022-10-16T07:03:03;20.92;;;15.55;;
13102;SDS011;52970;46.752;17.108;2022-10-16T07:05:29;24.00;;;18.45;;
13102;SDS011;52970;46.752;17.108;2022-10-16T07:07:54;20.88;;;16.05;;
13102;SDS011;52970;46.752;17.108;2022-10-16T07:10:19;18.52;;;16.02;;
13102;SDS011;52970;46.752;17.108;2022-10-16T07:12:44;22.95;;;17.10;;
13102;SDS011;52970;46.752;17.108;2022-10-16T07:15:10;18.33;;;15.10;;
13102;SDS011;52970;46.752;17.108;2022-10-16T07:17:35;21.55;;;16.38;;
13102;SDS011;52970;46.752;17.108;2022-10-16T07:20:01;21.65;;;17.00;;
13102;SDS011;52970;46.752;17.108;2022-10-16T07:22:27;19.38;;;16.48;;
13102;SDS011;52970;46.752;17.108;2022-10-16T07:24:53;21.52;;;16.25;;
13102;SDS011;52970;46.752;17.108;2022-10-16T07:27:18;21.95;;;17.27;;
13102;SDS011;52970;46.752;17.108;2022-10-16T07:29:43;21.80;;;17.17;;
13102;SDS011;52970;46.752;17.108;2022-10-16T07:32:08;21.30;;;16.42;;
13102;SDS011;52970;46.752;17.108;2022-10-16T07:34:33;23.58;;;17.42;;
13102;SDS011;52970;46.752;17.108;2022-10-16T07:36:59;21.85;;;16.77;;
13102;SDS011;52970;46.752;17.108;2022-10-16T07:39:24;25.13;;;17.38;;
13102;SDS011;52970;46.752;17.108;2022-10-16T07:41:49;20.75;;;16.20;;
13102;SDS011;52970;46.752;17.108;2022-10-16T07:44:15;21.55;;;16.98;;
13102;SDS011;52970;46.752;17.108;2022-10-16T07:46:40;20.52;;;17.15;;
13102;SDS011;52970;46.752;17.108;2022-10-16T07:49:05;21.67;;;15.82;;
13102;SDS011;52970;46.752;17.108;2022-10-16T07:51:31;23.58;;;18.13;;
13102;SDS011;52970;46.752;17.108;2022-10-16T07:53:56;19.45;;;16.30;;
13102;SDS011;52970;46.752;17.108;2022-10-16T07:56:21;19.92;;;16.60;;
13102;SDS011;52970;46.752;17.108;2022-10-16T07:58:47;23.30;;;16.23;;
13102;SDS011;52970;46.752;17.108;2022-10-16T08:01:15;22.73;;;17.10;;
13102;SDS011;52970;46.752;17.108;2022-10-16T08:03:41;20.35;;;16.25;;
13102;SDS011;52970;46.752;17.108;2022-10-16T08:06:07;20.88;;;16.27;;
13102;SDS011;52970;46.752;17.108;2022-10-16T08:08:32;21.48;;;16.67;;
13102;SDS011;52970;46.752;17.108;2022-10-16T08:10:57;20.55;;;16.73;;
13102;SDS011;52970;46.752;17.108;2022-10-16T08:13:22;20.50;;;15.55;;
13102;SDS011;52970;46.752;17.108;2022-10-16T08:15:48;21.45;;;17.60;;
13102;SDS011;52970;46.752;17.108;2022-10-16T08:18:13;21.98;;;17.55;;
13102;SDS011;52970;46.752;17.108;2022-10-16T08:20:39;20.92;;;17.52;;
13102;SDS011;52970;46.752;17.108;2022-10-16T08:23:05;21.08;;;17.98;;
13102;SDS011;52970;46.752;17.108;2022-10-16T08:25:30;23.90;;;19.20;;
13102;SDS011;52970;46.752;17.108;2022-10-16T08:27:55;23.30;;;18.63;;
13102;SDS011;52970;46.752;17.108;2022-10-16T08:30:21;22.20;;;17.95;;
13102;SDS011;52970;46.752;17.108;2022-10-16T08:32:47;24.23;;;18.58;;
13102;SDS011;52970;46.752;17.108;2022-10-16T08:35:12;24.63;;;19.02;;
13102;SDS011;52970;46.752;17.108;2022-10-16T08:37:38;24.55;;;19.23;;
13102;SDS011;52970;46.752;17.108;2022-10-16T08:40:04;21.15;;;18.50;;
13102;SDS011;52970;46.752;17.108;2022-10-16T08:42:34;24.35;;;19.77;;
13102;SDS011;52970;46.752;17.108;2022-10-16T08:50:21;27.90;;;21.17;;
13102;SDS011;52970;46.752;17.108;2022-10-16T08:52:47;25.25;;;20.52;;
13102;SDS011;52970;46.752;17.108;2022-10-16T08:55:32;32.17;;;21.42;;
13102;SDS011;52970;46.752;17.108;2022-10-16T08:57:59;28.67;;;22.98;;
13102;SDS011;52970;46.752;17.108;2022-10-16T09:00:24;28.60;;;21.73;;
13102;SDS011;52970;46.752;17.108;2022-10-16T09:08:08;25.95;;;21.70;;
13102;SDS011;52970;46.752;17.108;2022-10-16T09:13:20;26.55;;;21.20;;
13102;SDS011;52970;46.752;17.108;2022-10-16T09:15:51;25.25;;;22.50;;
13102;SDS011;52970;46.752;17.108;2022-10-16T09:20:49;28.88;;;22.75;;
13102;SDS011;52970;46.752;17.108;2022-10-16T09:23:17;30.77;;;23.98;;
13102;SDS011;52970;46.752;17.108;2022-10-16T09:25:47;29.67;;;23.75;;
13102;SDS011;52970;46.752;17.108;2022-10-16T09:28:13;31.35;;;24.73;;
13102;SDS011;52970;46.752;17.108;2022-10-16T09:30:39;29.48;;;24.80;;
13102;SDS011;52970;46.752;17.108;2022-10-16T09:33:04;33.92;;;25.90;;
13102;SDS011;52970;46.752;17.108;2022-10-16T09:35:36;31.63;;;24.83;;
13102;SDS011;52970;46.752;17.108;2022-10-16T09:38:02;31.00;;;25.15;;
13102;SDS011;52970;46.752;17.108;2022-10-16T09:40:35;30.98;;;25.38;;
13102;SDS011;52970;46.752;17.108;2022-10-16T09:46:06;31.95;;;25.70;;
13102;SDS011;52970;46.752;17.108;2022-10-16T09:48:37;30.08;;;24.95;;
13102;SDS011;52970;46.752;17.108;2022-10-16T09:51:03;31.95;;;24.70;;
13102;SDS011;52970;46.752;17.108;2022-10-16T09:53:38;31.75;;;24.23;;
13102;SDS011;52970;46.752;17.108;2022-10-16T09:56:04;29.90;;;24.33;;
13102;SDS011;52970;46.752;17.108;2022-10-16T09:58:31;31.13;;;24.90;;
13102;SDS011;52970;46.752;17.108;2022-10-16T10:00:58;30.10;;;24.88;;
13102;SDS011;52970;46.752;17.108;2022-10-16T10:03:34;29.63;;;23.63;;
13102;SDS011;52970;46.752;17.108;2022-10-16T10:06:06;32.03;;;24.52;;
13102;SDS011;52970;46.752;17.108;2022-10-16T10:08:32;30.40;;;24.55;;
13102;SDS011;52970;46.752;17.108;2022-10-16T10:10:57;29.55;;;24.23;;
13102;SDS011;52970;46.752;17.108;2022-10-16T10:13:22;30.92;;;23.33;;
13102;SDS011;52970;46.752;17.108;2022-10-16T10:15:51;30.77;;;23.98;;
13102;SDS011;52970;46.752;17.108;2022-10-16T10:18:17;30.23;;;23.40;;
13102;SDS011;52970;46.752;17.108;2022-10-16T10:20:44;27.00;;;22.77;;
13102;SDS011;52970;46.752;17.108;2022-10-16T10:23:22;28.45;;;23.60;;
13102;SDS011;52970;46.752;17.108;2022-10-16T10:30:59;29.30;;;23.38;;
13102;SDS011;52970;46.752;17.108;2022-10-16T10:41:31;30.90;;;23.77;;
13102;SDS011;52970;46.752;17.108;2022-10-16T10:46:45;29.45;;;24.02;;
13102;SDS011;52970;46.752;17.108;2022-10-16T10:51:55;28.95;;;23.40;;
13102;SDS011;52970;46.752;17.108;2022-10-16T10:57:02;29.67;;;25.23;;
13102;SDS011;52970;46.752;17.108;2022-10-16T10:59:37;29.05;;;23.33;;
13102;SDS011;52970;46.752;17.108;2022-10-16T11:05:00;28.00;;;23.55;;
13102;SDS011;52970;46.752;17.108;2022-10-16T11:07:30;29.75;;;25.73;;
13102;SDS011;52970;46.752;17.108;2022-10-16T11:09:59;29.60;;;24.30;;
13102;SDS011;52970;46.752;17.108;2022-10-16T11:12:31;27.00;;;22.55;;
13102;SDS011;52970;46.752;17.108;2022-10-16T11:15:00;25.42;;;22.33;;
13102;SDS011;52970;46.752;17.108;2022-10-16T11:17:38;30.08;;;23.27;;
13102;SDS011;52970;46.752;17.108;2022-10-16T11:20:18;25.55;;;22.85;;
13102;SDS011;52970;46.752;17.108;2022-10-16T11:22:46;30.85;;;24.05;;
13102;SDS011;52970;46.752;17.108;2022-10-16T11:30:05;24.92;;;21.70;;
13102;SDS011;52970;46.752;17.108;2022-10-16T11:32:49;36.88;;;24.20;;
13102;SDS011;52970;46.752;17.108;2022-10-16T11:35:17;30.55;;;23.38;;
13102;SDS011;52970;46.752;17.108;2022-10-16T11:37:44;28.05;;;21.55;;
13102;SDS011;52970;46.752;17.108;2022-10-16T11:40:16;27.70;;;22.10;;
13102;SDS011;52970;46.752;17.108;2022-10-16T11:42:46;26.70;;;22.55;;
13102;SDS011;52970;46.752;17.108;2022-10-16T11:45:31;26.15;;;22.40;;
13102;SDS011;52970;46.752;17.108;2022-10-16T11:48:00;24.30;;;21.27;;
13102;SDS011;52970;46.752;17.108;2022-10-16T11:55:34;26.17;;;22.75;;
13102;SDS011;52970;46.752;17.108;2022-10-16T11:58:12;29.30;;;23.45;;
13102;SDS011;52970;46.752;17.108;2022-10-16T12:00:43;24.60;;;22.00;;
13102;SDS011;52970;46.752;17.108;2022-10-16T12:03:13;26.52;;;23.52;;
13102;SDS011;52970;46.752;17.108;2022-10-16T12:05:51;26.42;;;23.35;;
13102;SDS011;52970;46.752;17.108;2022-10-16T12:08:17;26.45;;;22.92;;
13102;SDS011;52970;46.752;17.108;2022-10-16T12:10:44;26.90;;;22.65;;
13102;SDS011;52970;46.752;17.108;2022-10-16T12:18:40;26.98;;;23.73;;
13102;SDS011;52970;46.752;17.108;2022-10-16T12:21:06;25.85;;;23.02;;
13102;SDS011;52970;46.752;17.108;2022-10-16T12:23:45;30.25;;;23.88;;
13102;SDS011;52970;46.752;17.108;2022-10-16T12:26:11;26.67;;;23.27;;
13102;SDS011;52970;46.752;17.108;2022-10-16T12:28:37;31.45;;;25.05;;
13102;SDS011;52970;46.752;17.108;2022-10-16T12:31:07;28.25;;;25.00;;
13102;SDS011;52970;46.752;17.108;2022-10-16T12:33:35;27.42;;;24.42;;
13102;SDS011;52970;46.752;17.108;2022-10-16T12:36:02;26.45;;;23.50;;
13102;SDS011;52970;46.752;17.108;2022-10-16T12:40:55;28.10;;;23.30;;
13102;SDS011;52970;46.752;17.108;2022-10-16T12:48:38;30.48;;;26.42;;
13102;SDS011;52970;46.752;17.108;2022-10-16T12:51:11;35.58;;;30.38;;
13102;SDS011;52970;46.752;17.108;2022-10-16T12:53:36;29.00;;;24.17;;
13102;SDS011;52970;46.752;17.108;2022-10-16T12:58:32;27.07;;;22.17;;
13102;SDS011;52970;46.752;17.108;2022-10-16T13:01:07;27.13;;;22.77;;
13102;SDS011;52970;46.752;17.108;2022-10-16T13:18:59;26.52;;;22.23;;
13102;SDS011;52970;46.752;17.108;2022-10-16T13:21:33;26.05;;;21.77;;
13102;SDS011;52970;46.752;17.108;2022-10-16T13:24:03;27.83;;;23.10;;
13102;SDS011;52970;46.752;17.108;2022-10-16T13:29:03;25.77;;;21.83;;
13102;SDS011;52970;46.752;17.108;2022-10-16T13:31:29;25.98;;;21.42;;
13102;SDS011;52970;46.752;17.108;2022-10-16T13:33:55;26.02;;;21.77;;
13102;SDS011;52970;46.752;17.108;2022-10-16T13:36:30;26.10;;;22.02;;
13102;SDS011;52970;46.752;17.108;2022-10-16T13:39:00;24.98;;;21.65;;
13102;SDS011;52970;46.752;17.108;2022-10-16T13:41:25;26.23;;;21.10;;
13102;SDS011;52970;46.752;17.108;2022-10-16T13:43:51;27.87;;;22.57;;
13102;SDS011;52970;46.752;17.108;2022-10-16T13:46:18;29.23;;;22.55;;
13102;SDS011;52970;46.752;17.108;2022-10-16T13:48:45;26.92;;;21.88;;
13102;SDS011;52970;46.752;17.108;2022-10-16T13:51:21;25.30;;;22.10;;
13102;SDS011;52970;46.752;17.108;2022-10-16T13:53:46;26.67;;;22.50;;
13102;SDS011;52970;46.752;17.108;2022-10-16T13:56:13;25.25;;;21.48;;
13102;SDS011;52970;46.752;17.108;2022-10-16T13:58:39;25.35;;;21.13;;
13102;SDS011;52970;46.752;17.108;2022-10-16T14:01:05;25.30;;;21.92;;
13102;SDS011;52970;46.752;17.108;2022-10-16T14:03:31;29.65;;;23.20;;
13102;SDS011;52970;46.752;17.108;2022-10-16T14:05:59;24.65;;;21.13;;
13102;SDS011;52970;46.752;17.108;2022-10-16T14:08:25;26.23;;;22.05;;
13102;SDS011;52970;46.752;17.108;2022-10-16T14:10:52;27.15;;;21.73;;
13102;SDS011;52970;46.752;17.108;2022-10-16T14:13:19;22.20;;;19.85;;
13102;SDS011;52970;46.752;17.108;2022-10-16T14:15:47;28.70;;;21.95;;
13102;SDS011;52970;46.752;17.108;2022-10-16T14:18:15;26.65;;;21.35;;
13102;SDS011;52970;46.752;17.108;2022-10-16T14:20:42;25.85;;;20.80;;
13102;SDS011;52970;46.752;17.108;2022-10-16T14:23:21;28.98;;;21.95;;
13102;SDS011;52970;46.752;17.108;2022-10-16T14:25:47;28.13;;;21.35;;
13102;SDS011;52970;46.752;17.108;2022-10-16T14:30:37;24.03;;;20.13;;
13102;SDS011;52970;46.752;17.108;2022-10-16T14:33:21;25.98;;;20.65;;
13102;SDS011;52970;46.752;17.108;2022-10-16T14:35:46;27.95;;;20.80;;
13102;SDS011;52970;46.752;17.108;2022-10-16T14:38:22;23.83;;;21.23;;
13102;SDS011;52970;46.752;17.108;2022-10-16T14:40:48;25.75;;;20.77;;
13102;SDS011;52970;46.752;17.108;2022-10-16T14:43:14;24.67;;;21.02;;
13102;SDS011;52970;46.752;17.108;2022-10-16T14:45:41;26.85;;;21.73;;
13102;SDS011;52970;46.752;17.108;2022-10-16T14:48:14;25.17;;;20.75;;
13102;SDS011;52970;46.752;17.108;2022-10-16T14:50:41;25.40;;;21.25;;
13102;SDS011;52970;46.752;17.108;2022-10-16T14:53:13;25.75;;;21.65;;
13102;SDS011;52970;46.752;17.108;2022-10-16T14:55:38;24.40;;;20.85;;
13102;SDS011;52970;46.752;17.108;2022-10-16T14:58:04;25.02;;;21.45;;
13102;SDS011;52970;46.752;17.108;2022-10-16T15:00:29;25.55;;;21.90;;
13102;SDS011;52970;46.752;17.108;2022-10-16T15:02:54;25.60;;;21.15;;
13102;SDS011;52970;46.752;17.108;2022-10-16T15:05:23;24.17;;;21.23;;
13102;SDS011;52970;46.752;17.108;2022-10-16T15:07:50;25.20;;;21.77;;
13102;SDS011;52970;46.752;17.108;2022-10-16T15:10:16;25.13;;;21.10;;
13102;SDS011;52970;46.752;17.108;2022-10-16T15:12:42;24.42;;;21.60;;
13102;SDS011;52970;46.752;17.108;2022-10-16T15:15:24;23.00;;;20.58;;
13102;SDS011;52970;46.752;17.108;2022-10-16T15:17:51;24.02;;;20.42;;
13102;SDS011;52970;46.752;17.108;2022-10-16T15:20:21;26.77;;;21.40;;
13102;SDS011;52970;46.752;17.108;2022-10-16T15:22:47;24.42;;;20.63;;
13102;SDS011;52970;46.752;17.108;2022-10-16T15:25:18;24.60;;;21.90;;
13102;SDS011;52970;46.752;17.108;2022-10-16T15:27:50;26.70;;;21.73;;
13102;SDS011;52970;46.752;17.108;2022-10-16T15:30:15;26.87;;;21.00;;
13102;SDS011;52970;46.752;17.108;2022-10-16T15:32:40;26.50;;;21.92;;
13102;SDS011;52970;46.752;17.108;2022-10-16T15:35:08;23.57;;;20.30;;
13102;SDS011;52970;46.752;17.108;2022-10-16T15:37:33;24.58;;;21.23;;
13102;SDS011;52970;46.752;17.108;2022-10-16T15:39:58;25.80;;;20.80;;
13102;SDS011;52970;46.752;17.108;2022-10-16T15:42:23;25.67;;;20.67;;
13102;SDS011;52970;46.752;17.108;2022-10-16T15:44:49;24.70;;;21.03;;